createdAt,value
2023-03-26T00:01:36.775Z,6.69
2023-03-26T00:04:06.676Z,6.67
2023-03-26T00:06:39.626Z,6.65
2023-03-26T00:09:10.873Z,6.72
2023-03-26T00:11:37.966Z,6.65
2023-03-26T00:14:05.537Z,6.70
2023-03-26T00:16:33.116Z,6.60
2023-03-26T00:19:01.708Z,6.60
2023-03-26T00:21:30.720Z,6.50
2023-03-26T00:24:00.863Z,6.46
2023-03-26T00:26:31.045Z,6.37
2023-03-26T00:29:00.223Z,6.31
2023-03-26T00:31:27.505Z,6.21
2023-03-26T00:33:55.613Z,6.12
2023-03-26T00:36:25.748Z,6.03
2023-03-26T00:38:53.813Z,5.92
2023-03-26T00:41:25.768Z,5.87
2023-03-26T00:43:59.533Z,5.78
2023-03-26T00:46:29.475Z,5.73
2023-03-26T00:48:58.878Z,5.75
2023-03-26T00:51:27.791Z,5.71
2023-03-26T00:53:55.580Z,5.69
2023-03-26T00:56:22.521Z,5.71
2023-03-26T00:58:50.231Z,5.77
2023-03-26T01:01:27.714Z,5.87
2023-03-26T01:04:08.314Z,5.94
2023-03-26T01:06:41.869Z,6.00
2023-03-26T01:09:21.439Z,5.99
2023-03-26T01:11:49.640Z,6.10
2023-03-26T01:14:19.671Z,6.12
2023-03-26T01:16:55.138Z,6.22
2023-03-26T01:20:11.832Z,6.15
2023-03-26T01:22:46.043Z,6.23
2023-03-26T01:25:14.245Z,6.26
2023-03-26T01:27:55.914Z,6.23
2023-03-26T01:31:01.393Z,6.22
2023-03-26T01:33:45.533Z,6.24
2023-03-26T01:36:36.663Z,6.23
2023-03-26T01:39:27.938Z,6.22
2023-03-26T01:42:02.885Z,6.22
2023-03-26T01:44:44.861Z,6.18
2023-03-26T01:47:13.363Z,6.15
2023-03-26T01:49:40.373Z,6.26
2023-03-26T01:52:17.372Z,6.21
2023-03-26T01:54:46.634Z,6.18
2023-03-26T01:57:24.210Z,6.27
2023-03-26T02:00:16.306Z,6.24
2023-03-26T02:02:59.212Z,6.21
2023-03-26T02:05:56.692Z,6.24
2023-03-26T02:08:35.834Z,6.21
2023-03-26T02:11:13.234Z,6.24
2023-03-26T02:13:44.092Z,6.22
2023-03-26T02:16:16.539Z,6.24
2023-03-26T02:18:45.767Z,6.18
2023-03-26T02:21:20.255Z,6.19
2023-03-26T02:24:03.334Z,6.20
2023-03-26T02:26:35.721Z,6.29
2023-03-26T02:29:14.323Z,6.25
2023-03-26T02:31:44.641Z,6.26
2023-03-26T02:34:11.584Z,6.21
2023-03-26T02:36:43.033Z,6.23
2023-03-26T02:39:11.953Z,6.25
2023-03-26T02:41:39.131Z,6.24
2023-03-26T02:44:09.507Z,6.29
2023-03-26T02:47:11.742Z,6.29
2023-03-26T02:49:53.768Z,6.34
2023-03-26T02:52:49.806Z,6.34
2023-03-26T02:55:17.429Z,6.32
2023-03-26T02:57:45.686Z,6.38
2023-03-26T03:00:18.617Z,6.39
2023-03-26T03:02:47.976Z,6.33
2023-03-26T03:05:21.024Z,6.36
2023-03-26T03:07:58.000Z,6.33
2023-03-26T03:10:28.165Z,6.40
2023-03-26T03:13:18.501Z,6.35
2023-03-26T03:15:45.613Z,6.37
2023-03-26T03:18:12.424Z,6.43
2023-03-26T03:20:39.296Z,6.41
2023-03-26T03:23:06.287Z,6.34
2023-03-26T03:25:33.752Z,6.30
2023-03-26T03:28:01.285Z,6.29
2023-03-26T03:30:28.294Z,6.31
2023-03-26T03:33:24.098Z,6.31
2023-03-26T03:35:51.138Z,6.39
2023-03-26T03:38:19.256Z,6.31
2023-03-26T03:40:49.689Z,6.35
2023-03-26T03:43:17.190Z,6.33
2023-03-26T03:46:04.634Z,6.33
2023-03-26T03:48:38.199Z,6.33
2023-03-26T03:51:06.829Z,6.38
2023-03-26T03:53:57.510Z,6.37
2023-03-26T03:57:02.200Z,6.31
2023-03-26T03:59:29.120Z,6.38
2023-03-26T04:01:56.338Z,6.44
2023-03-26T04:04:32.920Z,6.45
2023-03-26T04:07:02.356Z,6.45
2023-03-26T04:09:40.321Z,6.39
2023-03-26T04:12:14.197Z,6.42
2023-03-26T04:14:51.666Z,6.44
2023-03-26T04:17:23.707Z,6.43
2023-03-26T04:19:54.954Z,6.36
2023-03-26T04:22:36.403Z,6.49
2023-03-26T04:25:07.615Z,6.43
2023-03-26T04:27:46.184Z,6.41
2023-03-26T04:30:24.765Z,6.36
2023-03-26T04:33:06.301Z,6.37
2023-03-26T04:35:37.577Z,6.40
2023-03-26T04:38:07.316Z,6.46
2023-03-26T04:40:39.599Z,6.45
2023-03-26T04:43:24.910Z,6.43
2023-03-26T04:46:13.200Z,6.39
2023-03-26T04:48:50.607Z,6.40
2023-03-26T04:51:20.129Z,6.44
2023-03-26T04:54:00.354Z,6.44
2023-03-26T04:56:39.550Z,6.49
2023-03-26T04:59:35.287Z,6.47
2023-03-26T05:02:06.528Z,6.50
2023-03-26T05:04:46.022Z,6.53
2023-03-26T05:07:20.005Z,6.57
2023-03-26T05:09:52.943Z,6.65
2023-03-26T05:12:25.847Z,6.60
2023-03-26T05:15:15.331Z,6.56
2023-03-26T05:18:04.647Z,6.61
2023-03-26T05:20:43.573Z,6.55
2023-03-26T05:23:10.892Z,6.59
2023-03-26T05:25:41.618Z,6.56
2023-03-26T05:28:24.226Z,6.56
2023-03-26T05:30:58.582Z,6.59
2023-03-26T05:33:28.772Z,6.54
2023-03-26T05:36:15.593Z,6.60
2023-03-26T05:38:47.756Z,6.58
2023-03-26T05:41:19.531Z,6.65
2023-03-26T05:43:48.943Z,6.61
2023-03-26T05:46:21.963Z,6.53
2023-03-26T05:48:49.920Z,6.62
2023-03-26T05:51:16.970Z,6.61
2023-03-26T05:53:54.944Z,6.66
2023-03-26T05:56:48.002Z,6.69
2023-03-26T05:59:53.742Z,6.65
2023-03-26T06:02:50.627Z,6.76
2023-03-26T06:05:23.884Z,6.80
2023-03-26T06:08:00.819Z,6.81
2023-03-26T06:10:39.373Z,6.88
2023-03-26T06:13:06.412Z,6.85
2023-03-26T06:15:36.235Z,6.90
2023-03-26T06:18:23.998Z,6.97
2023-03-26T06:21:09.505Z,6.93
2023-03-26T06:23:56.077Z,6.99
2023-03-26T06:26:43.187Z,7.02
2023-03-26T06:29:34.860Z,6.99
2023-03-26T06:32:20.105Z,6.96
2023-03-26T06:34:57.740Z,6.99
2023-03-26T06:37:24.632Z,7.03
2023-03-26T06:39:57.131Z,7.11
2023-03-26T06:43:09.397Z,7.16
2023-03-26T06:45:51.940Z,7.21
2023-03-26T06:48:37.811Z,7.23
2023-03-26T06:51:23.055Z,7.37
2023-03-26T06:54:08.319Z,7.42
2023-03-26T06:56:45.006Z,7.50
2023-03-26T06:59:35.348Z,7.59
2023-03-26T07:02:37.645Z,7.56
2023-03-26T07:05:23.402Z,7.60
2023-03-26T07:08:09.179Z,7.60
2023-03-26T07:10:55.055Z,7.64
2023-03-26T07:13:42.364Z,7.64
2023-03-26T07:16:27.871Z,7.70
2023-03-26T07:18:57.468Z,7.75
2023-03-26T07:21:30.421Z,7.84
2023-03-26T07:23:57.789Z,7.88
2023-03-26T07:27:03.966Z,8.02
2023-03-26T07:30:46.525Z,8.08
2023-03-26T07:33:58.766Z,8.25
2023-03-26T07:36:53.657Z,8.26
2023-03-26T07:39:58.071Z,8.32
2023-03-26T07:43:41.178Z,8.37
2023-03-26T07:46:14.241Z,8.51
2023-03-26T07:48:54.108Z,8.38
2023-03-26T07:51:39.685Z,8.26
2023-03-26T07:54:11.984Z,8.49
2023-03-26T07:57:03.528Z,8.77
2023-03-26T07:59:45.062Z,8.51
2023-03-26T08:03:05.896Z,8.40
2023-03-26T08:06:07.992Z,8.20
2023-03-26T08:09:28.709Z,8.30
2023-03-26T08:12:17.639Z,8.24
2023-03-26T08:15:22.052Z,8.24
2023-03-26T08:17:57.781Z,8.26
2023-03-26T08:21:17.738Z,8.50
2023-03-26T08:24:08.001Z,8.69
2023-03-26T08:26:49.068Z,8.81
2023-03-26T08:29:32.914Z,8.71
2023-03-26T08:32:01.861Z,9.04
2023-03-26T08:34:28.793Z,9.27
2023-03-26T08:36:55.711Z,9.38
2023-03-26T08:39:22.734Z,9.37
2023-03-26T08:41:55.202Z,9.51
2023-03-26T08:44:49.581Z,9.32
2023-03-26T08:48:06.621Z,9.50
2023-03-26T08:50:58.227Z,9.40
2023-03-26T08:54:03.356Z,9.49
2023-03-26T08:57:04.566Z,9.71
2023-03-26T08:59:42.299Z,9.71
2023-03-26T09:02:27.167Z,9.82
2023-03-26T09:05:52.612Z,10.05
2023-03-26T09:08:31.564Z,10.08
2023-03-26T09:11:20.310Z,9.59
2023-03-26T09:14:08.991Z,9.40
2023-03-26T09:17:28.804Z,9.53
2023-03-26T09:20:35.175Z,9.66
2023-03-26T09:23:34.772Z,9.84
2023-03-26T09:26:29.787Z,9.98
2023-03-26T09:29:35.012Z,10.21
2023-03-26T09:32:39.346Z,10.15
2023-03-26T09:35:18.101Z,9.97
2023-03-26T09:38:11.243Z,9.78
2023-03-26T09:41:09.816Z,9.89
2023-03-26T09:44:13.881Z,10.41
2023-03-26T09:46:56.235Z,10.56
2023-03-26T09:49:41.208Z,10.72
2023-03-26T09:52:46.547Z,10.43
2023-03-26T09:55:30.306Z,10.55
2023-03-26T09:58:26.073Z,10.84
2023-03-26T10:01:22.288Z,10.84
2023-03-26T10:04:10.499Z,10.69
2023-03-26T10:07:01.360Z,10.70
2023-03-26T10:10:12.707Z,11.10
2023-03-26T10:12:45.722Z,11.33
2023-03-26T10:15:54.377Z,11.57
2023-03-26T10:18:30.009Z,11.48
2023-03-26T10:21:28.505Z,11.37
2023-03-26T10:24:21.073Z,11.09
2023-03-26T10:27:10.386Z,10.79
2023-03-26T10:30:20.632Z,10.65
2023-03-26T10:33:08.064Z,10.47
2023-03-26T10:35:53.079Z,10.19
2023-03-26T10:39:37.203Z,9.76
2023-03-26T10:42:21.746Z,9.26
2023-03-26T10:45:25.577Z,8.62
2023-03-26T10:48:03.091Z,8.40
2023-03-26T10:51:06.587Z,8.24
2023-03-26T10:53:56.044Z,8.10
2023-03-26T10:56:40.041Z,8.21
2023-03-26T10:59:12.963Z,8.37
2023-03-26T11:01:54.745Z,8.36
2023-03-26T11:04:54.457Z,8.47
2023-03-26T11:07:27.033Z,8.35
2023-03-26T11:10:19.462Z,8.37
2023-03-26T11:13:08.934Z,8.43
2023-03-26T11:16:00.314Z,8.39
2023-03-26T11:18:32.701Z,8.41
2023-03-26T11:21:19.854Z,8.35
2023-03-26T11:24:06.509Z,8.19
2023-03-26T11:27:14.486Z,8.09
2023-03-26T11:30:14.847Z,8.14
2023-03-26T11:32:48.301Z,8.14
2023-03-26T11:35:40.667Z,8.26
2023-03-26T11:38:26.397Z,8.30
2023-03-26T11:40:57.348Z,8.49
2023-03-26T11:43:49.676Z,8.65
2023-03-26T11:46:20.987Z,8.64
2023-03-26T11:48:58.161Z,8.73
2023-03-26T11:51:34.189Z,8.79
2023-03-26T11:54:07.852Z,8.78
2023-03-26T11:57:05.174Z,8.77
2023-03-26T11:59:55.639Z,8.77
2023-03-26T12:02:37.784Z,8.84
2023-03-26T12:05:26.546Z,8.98
2023-03-26T12:07:59.745Z,8.90
2023-03-26T12:10:39.414Z,9.02
2023-03-26T12:13:44.751Z,9.14
2023-03-26T12:16:19.358Z,8.94
2023-03-26T12:19:03.865Z,8.82
2023-03-26T12:21:46.566Z,8.85
2023-03-26T12:24:35.206Z,8.95
2023-03-26T12:27:24.902Z,8.97
2023-03-26T12:30:00.402Z,8.53
2023-03-26T12:32:45.147Z,8.66
2023-03-26T12:35:30.158Z,8.73
2023-03-26T12:38:23.482Z,8.76
2023-03-26T12:44:44.671Z,8.77
2023-03-26T12:44:52.934Z,8.64
2023-03-26T12:47:57.154Z,8.51
2023-03-26T12:50:16.003Z,8.43
2023-03-26T12:52:49.486Z,8.44
2023-03-26T12:55:42.390Z,8.52
2023-03-26T12:58:51.353Z,8.59
2023-03-26T13:02:05.929Z,8.31
2023-03-26T13:05:05.635Z,8.07
2023-03-26T13:07:51.585Z,7.88
2023-03-26T13:10:50.775Z,8.09
2023-03-26T13:13:38.627Z,8.18
2023-03-26T13:16:42.542Z,8.20
2023-03-26T13:19:43.980Z,8.21
2023-03-26T13:22:46.180Z,8.23
2023-03-26T13:25:31.513Z,8.35
2023-03-26T13:28:26.260Z,8.33
2023-03-26T13:31:02.262Z,8.36
2023-03-26T13:33:44.808Z,8.36
2023-03-26T13:36:43.351Z,8.56
2023-03-26T13:39:49.980Z,8.60
2023-03-26T13:42:55.084Z,8.42
2023-03-26T13:45:56.337Z,8.61
2023-03-26T13:48:30.261Z,8.67
2023-03-26T13:51:40.683Z,8.84
2023-03-26T13:54:14.190Z,8.84
2023-03-26T13:56:50.499Z,8.85
2023-03-26T14:00:10.087Z,8.83
2023-03-26T14:02:45.541Z,8.93
2023-03-26T14:05:38.868Z,9.01
2023-03-26T14:08:37.834Z,8.97
2023-03-26T14:11:11.651Z,9.01
2023-03-26T14:13:51.935Z,9.22
2023-03-26T14:16:29.455Z,9.08
2023-03-26T14:19:30.883Z,9.05
2023-03-26T14:22:16.016Z,9.04
2023-03-26T14:25:08.244Z,9.21
2023-03-26T14:28:19.565Z,9.26
2023-03-26T14:31:14.111Z,9.16
2023-03-26T14:34:22.572Z,9.13
2023-03-26T14:36:59.107Z,8.97
2023-03-26T14:40:07.997Z,9.04
2023-03-26T14:42:43.064Z,9.00
2023-03-26T14:45:41.669Z,8.99
2023-03-26T14:49:02.240Z,9.00
2023-03-26T14:51:42.337Z,9.21
2023-03-26T14:54:15.986Z,9.30
2023-03-26T14:57:44.561Z,9.13
2023-03-26T15:01:03.908Z,9.08
2023-03-26T15:03:38.811Z,9.13
2023-03-26T15:06:30.200Z,9.01
2023-03-26T15:09:40.378Z,8.88
2023-03-26T15:12:33.260Z,8.67
2023-03-26T15:16:08.992Z,8.60
2023-03-26T15:19:14.356Z,8.29
2023-03-26T15:21:47.282Z,8.24
2023-03-26T15:24:35.309Z,8.16
2023-03-26T15:27:17.215Z,8.17
2023-03-26T15:30:26.970Z,7.72
2023-03-26T15:33:45.001Z,7.89
2023-03-26T15:36:58.774Z,8.20
2023-03-26T15:39:59.459Z,8.31
2023-03-26T15:42:36.093Z,8.14
2023-03-26T15:45:26.538Z,7.94
2023-03-26T15:48:01.229Z,7.82
2023-03-26T15:50:54.755Z,7.80
2023-03-26T15:54:04.832Z,7.88
2023-03-26T15:57:16.745Z,7.49
2023-03-26T16:00:15.393Z,7.38
2023-03-26T16:03:09.278Z,7.23
2023-03-26T16:06:02.156Z,7.18
2023-03-26T16:08:53.069Z,7.18
2023-03-26T16:11:49.759Z,7.30
2023-03-26T16:14:41.488Z,7.30
2023-03-26T16:17:23.342Z,7.17
2023-03-26T16:20:32.634Z,7.13
2023-03-26T16:23:04.561Z,7.13
2023-03-26T16:26:41.270Z,7.10
2023-03-26T16:29:14.380Z,7.08
2023-03-26T16:32:12.273Z,7.08
2023-03-26T16:35:00.233Z,6.96
2023-03-26T16:37:43.887Z,6.83
2023-03-26T16:40:16.797Z,6.79
2023-03-26T16:42:54.530Z,6.70
2023-03-26T16:45:54.684Z,6.67
2023-03-26T16:48:39.496Z,6.64
2023-03-26T16:51:26.191Z,6.60
2023-03-26T16:54:23.666Z,6.57
2023-03-26T16:57:30.694Z,6.51
2023-03-26T17:00:13.874Z,6.44
2023-03-26T17:03:37.720Z,6.41
2023-03-26T17:06:47.891Z,6.42
2023-03-26T17:09:44.065Z,6.49
2023-03-26T17:12:44.387Z,6.46
2023-03-26T17:15:36.402Z,6.47
2023-03-26T17:18:18.635Z,6.39
2023-03-26T17:21:01.055Z,6.43
2023-03-26T17:23:54.413Z,6.37
2023-03-26T17:26:28.840Z,6.30
2023-03-26T17:29:31.550Z,6.26
2023-03-26T17:32:11.530Z,6.18
2023-03-26T17:34:38.383Z,6.02
2023-03-26T17:37:11.879Z,6.03
2023-03-26T17:39:38.640Z,5.96
2023-03-26T17:42:32.985Z,5.92
2023-03-26T17:45:28.929Z,5.82
2023-03-26T17:48:20.542Z,5.80
2023-03-26T17:50:55.399Z,5.61
2023-03-26T17:53:31.328Z,5.57
2023-03-26T17:56:03.896Z,5.61
2023-03-26T17:58:50.364Z,5.56
2023-03-26T18:01:33.845Z,5.49
2023-03-26T18:04:05.987Z,5.39
2023-03-26T18:06:32.739Z,5.35
2023-03-26T18:09:09.830Z,5.36
2023-03-26T18:12:16.357Z,5.32
2023-03-26T18:15:01.130Z,5.35
2023-03-26T18:17:39.319Z,5.25
2023-03-26T18:20:07.345Z,5.24
2023-03-26T18:22:34.767Z,5.25
2023-03-26T18:25:04.068Z,5.26
2023-03-26T18:27:40.338Z,5.24
2023-03-26T18:30:23.428Z,5.29
2023-03-26T18:33:01.374Z,5.28
2023-03-26T18:35:42.202Z,5.24
2023-03-26T18:38:19.382Z,5.27
2023-03-26T18:41:06.193Z,5.23
2023-03-26T18:43:35.729Z,5.03
2023-03-26T18:46:14.428Z,4.89
2023-03-26T18:48:41.873Z,5.01
2023-03-26T18:51:08.913Z,4.95
2023-03-26T18:53:41.199Z,4.88
2023-03-26T18:56:27.366Z,4.89
2023-03-26T18:58:59.039Z,4.86
2023-03-26T19:01:32.288Z,4.82
2023-03-26T19:04:04.865Z,4.88
2023-03-26T19:06:38.337Z,4.85
2023-03-26T19:09:23.777Z,4.74
2023-03-26T19:12:14.275Z,4.75
2023-03-26T19:15:12.676Z,4.66
2023-03-26T19:17:48.442Z,4.61
2023-03-26T19:20:19.668Z,4.65
2023-03-26T19:22:48.383Z,4.63
2023-03-26T19:25:29.594Z,4.58
2023-03-26T19:27:57.557Z,4.52
2023-03-26T19:30:33.119Z,4.57
2023-03-26T19:33:13.852Z,4.53
2023-03-26T19:35:42.733Z,4.50
2023-03-26T19:38:26.013Z,4.39
2023-03-26T19:40:56.692Z,4.33
2023-03-26T19:43:27.171Z,4.23
2023-03-26T19:46:00.165Z,4.15
2023-03-26T19:48:46.113Z,4.03
2023-03-26T19:51:32.045Z,3.98
2023-03-26T19:54:03.033Z,3.84
2023-03-26T19:56:30.420Z,3.80
2023-03-26T19:58:59.235Z,3.77
2023-03-26T20:01:29.248Z,3.79
2023-03-26T20:04:06.848Z,3.64
2023-03-26T20:06:42.377Z,3.60
2023-03-26T20:09:16.299Z,3.60
2023-03-26T20:11:43.354Z,3.59
2023-03-26T20:14:25.830Z,3.51
2023-03-26T20:16:53.598Z,3.47
2023-03-26T20:19:20.698Z,3.47
2023-03-26T20:21:47.619Z,3.44
2023-03-26T20:24:17.555Z,3.47
2023-03-26T20:26:46.334Z,3.40
2023-03-26T20:29:14.517Z,3.41
2023-03-26T20:31:43.325Z,3.40
2023-03-26T20:34:16.500Z,3.39
2023-03-26T20:36:44.037Z,3.22
2023-03-26T20:39:11.206Z,3.18
2023-03-26T20:41:47.225Z,3.14
2023-03-26T20:44:18.652Z,3.13
2023-03-26T20:46:48.595Z,3.04
2023-03-26T20:49:16.022Z,2.89
2023-03-26T20:51:43.686Z,2.78
2023-03-26T20:54:21.263Z,2.66
2023-03-26T20:56:48.874Z,2.50
2023-03-26T20:59:26.888Z,2.44
2023-03-26T21:01:56.632Z,2.30
2023-03-26T21:04:24.725Z,2.18
2023-03-26T21:06:53.351Z,2.22
2023-03-26T21:09:24.105Z,2.17
2023-03-26T21:12:16.750Z,2.06
2023-03-26T21:14:44.266Z,1.98
2023-03-26T21:17:18.920Z,2.03
2023-03-26T21:19:47.219Z,1.93
2023-03-26T21:22:27.711Z,1.85
2023-03-26T21:25:05.853Z,1.81
2023-03-26T21:28:07.203Z,1.75
2023-03-26T21:30:34.817Z,1.63
2023-03-26T21:33:02.159Z,1.62
2023-03-26T21:35:29.880Z,1.55
2023-03-26T21:37:57.695Z,1.56
2023-03-26T21:40:24.697Z,1.58
2023-03-26T21:42:54.259Z,1.53
2023-03-26T21:45:22.140Z,1.51
2023-03-26T21:47:49.847Z,1.47
2023-03-26T21:50:20.931Z,1.45
2023-03-26T21:52:50.902Z,1.35
2023-03-26T21:55:23.426Z,1.36
2023-03-26T21:58:31.517Z,1.33
2023-03-26T22:01:38.160Z,1.29
2023-03-26T22:04:22.222Z,1.27
2023-03-26T22:07:04.326Z,1.39
2023-03-26T22:09:36.252Z,1.40
2023-03-26T22:12:05.490Z,1.31
2023-03-26T22:14:33.620Z,1.39
2023-03-26T22:17:00.489Z,1.33
2023-03-26T22:19:28.568Z,1.31
2023-03-26T22:21:58.164Z,1.30
2023-03-26T22:24:25.086Z,1.31
2023-03-26T22:26:51.986Z,1.34
2023-03-26T22:29:18.948Z,1.36
2023-03-26T22:31:46.458Z,1.36
2023-03-26T22:34:13.522Z,1.37
2023-03-26T22:36:40.642Z,1.43
2023-03-26T22:39:07.705Z,1.45
2023-03-26T22:41:34.651Z,1.49
2023-03-26T22:44:12.905Z,1.58
2023-03-26T22:46:49.265Z,1.59
2023-03-26T22:49:17.880Z,1.63
2023-03-26T22:51:44.722Z,1.60
2023-03-26T22:54:11.608Z,1.58
2023-03-26T22:56:38.526Z,1.53
2023-03-26T22:59:06.960Z,1.65
2023-03-26T23:01:34.384Z,1.55
2023-03-26T23:04:01.573Z,1.60
2023-03-26T23:06:28.538Z,1.63
2023-03-26T23:08:57.018Z,1.57
2023-03-26T23:11:23.984Z,1.62
2023-03-26T23:13:51.223Z,1.55
2023-03-26T23:16:21.514Z,1.59
2023-03-26T23:18:49.006Z,1.57
2023-03-26T23:21:19.520Z,1.47
2023-03-26T23:23:48.322Z,1.58
2023-03-26T23:26:15.601Z,1.48
2023-03-26T23:28:43.182Z,1.50
2023-03-26T23:31:12.270Z,1.46
2023-03-26T23:33:45.769Z,1.46
2023-03-26T23:36:17.582Z,1.39
2023-03-26T23:38:47.595Z,1.39
2023-03-26T23:41:21.395Z,1.36
2023-03-26T23:43:56.402Z,1.30
2023-03-26T23:46:34.632Z,1.31
2023-03-26T23:49:03.367Z,1.32
2023-03-26T23:51:31.929Z,1.29
2023-03-26T23:54:00.301Z,1.35
2023-03-26T23:56:30.291Z,1.34
2023-03-26T23:58:59.116Z,1.39
